Time;durP1;ratioP1;P1;durP2;ratioP2;P2;SDS_P1;SDS_P2;PMS_P1;PMS_P2;Temp;Humidity;BMP_temperature;BMP_pressure;BME280_temperature;BME280_humidity;BME280_pressure;Samples;Min_cycle;Max_cycle;Signal;HPM_P1;HPM_P2
2023/08/17 00:00:34;;;;;;;7.77;3.93;;;16.30;99.90;;;;;;5156308;27;20046;-76
2023/08/17 00:03:00;;;;;;;9.57;3.60;;;16.20;99.90;;;;;;5156206;27;20471;-75
2023/08/17 00:05:27;;;;;;;9.50;3.50;;;16.30;99.90;;;;;;5155952;27;20051;-76
2023/08/17 00:07:52;;;;;;;7.33;3.17;;;16.20;99.90;;;;;;5156087;27;20371;-75
2023/08/17 00:10:18;;;;;;;9.13;3.50;;;16.20;99.90;;;;;;5137244;27;20046;-76
2023/08/17 00:12:44;;;;;;;9.70;3.70;;;16.20;99.90;;;;;;5137526;27;20042;-76
2023/08/17 00:15:10;;;;;;;7.47;3.40;;;16.10;99.90;;;;;;5137222;27;20047;-76
2023/08/17 00:17:35;;;;;;;7.57;3.13;;;16.10;99.90;;;;;;5119950;27;20038;-75
2023/08/17 00:20:04;;;;;;;9.47;3.30;;;16.10;99.90;;;;;;5156110;27;20046;-75
2023/08/17 00:22:30;;;;;;;10.53;3.67;;;16.10;99.90;;;;;;5120563;27;20043;-75
2023/08/17 00:24:56;;;;;;;8.10;3.60;;;16.10;99.90;;;;;;5120573;27;20054;-75
2023/08/17 00:27:22;;;;;;;8.10;3.57;;;16.00;99.90;;;;;;5120330;27;20046;-75
2023/08/17 00:29:48;;;;;;;8.57;3.40;;;16.10;99.90;;;;;;5137572;27;20117;-75
2023/08/17 00:32:13;;;;;;;7.90;3.97;;;16.10;99.90;;;;;;5137216;27;20463;-75
2023/08/17 00:34:39;;;;;;;8.13;3.57;;;16.10;99.90;;;;;;5137461;27;20491;-75
2023/08/17 00:37:05;;;;;;;5.50;3.27;;;16.10;99.90;;;;;;5137069;27;20169;-75
2023/08/17 00:39:30;;;;;;;7.23;3.30;;;16.00;99.90;;;;;;5154967;27;20094;-75
2023/08/17 00:41:56;;;;;;;7.43;3.37;;;16.10;99.90;;;;;;5155754;27;20117;-75
2023/08/17 00:44:22;;;;;;;9.57;3.80;;;16.10;99.90;;;;;;5136579;27;20494;-75
2023/08/17 00:46:47;;;;;;;8.47;3.70;;;16.10;99.90;;;;;;5137256;27;20047;-75
2023/08/17 00:49:13;;;;;;;8.60;3.53;;;16.10;99.90;;;;;;5119667;27;20046;-76
2023/08/17 00:51:39;;;;;;;10.47;4.07;;;16.10;99.90;;;;;;5137342;27;20042;-75
2023/08/17 00:54:05;;;;;;;7.30;2.90;;;16.10;99.90;;;;;;5155362;27;20066;-75
2023/08/17 00:56:31;;;;;;;8.13;2.97;;;16.10;99.90;;;;;;5136723;27;20179;-76
2023/08/17 00:58:57;;;;;;;6.67;3.20;;;16.10;99.90;;;;;;5155287;27;20083;-75
2023/08/17 01:01:23;;;;;;;8.07;3.17;;;16.00;99.90;;;;;;5119590;27;20467;-75
2023/08/17 01:03:49;;;;;;;5.83;2.53;;;16.10;99.90;;;;;;5154838;27;20486;-76
2023/08/17 01:06:14;;;;;;;6.83;3.10;;;16.00;99.90;;;;;;5154880;27;20043;-75
2023/08/17 01:08:43;;;;;;;10.43;4.33;;;16.00;99.90;;;;;;5154618;27;20093;-75
2023/08/17 01:11:34;;;;;;;6.83;3.30;;;15.90;99.90;;;;;;5155091;27;20043;-75
2023/08/17 01:14:05;;;;;;;9.43;3.30;;;15.90;99.90;;;;;;5155072;27;20043;-75
2023/08/17 01:16:39;;;;;;;6.97;3.47;;;15.90;99.90;;;;;;5154748;27;20057;-76
2023/08/17 01:19:08;;;;;;;5.85;2.80;;;15.80;99.90;;;;;;5155117;27;20051;-75
2023/08/17 01:21:44;;;;;;;8.23;3.20;;;15.80;99.90;;;;;;5136459;27;20051;-75
2023/08/17 01:24:12;;;;;;;7.10;3.07;;;15.80;99.90;;;;;;5155065;27;20053;-75
2023/08/17 01:26:37;;;;;;;9.77;3.10;;;15.80;99.90;;;;;;5136358;27;20475;-75
2023/08/17 01:29:04;;;;;;;6.37;2.90;;;15.80;99.90;;;;;;5136452;27;20081;-75
2023/08/17 01:31:40;;;;;;;8.60;2.80;;;15.80;99.90;;;;;;5154553;27;20096;-75
2023/08/17 01:34:10;;;;;;;6.93;3.07;;;15.80;99.90;;;;;;5154904;27;20093;-75
2023/08/17 01:36:45;;;;;;;10.13;3.83;;;15.80;99.90;;;;;;5154459;27;20051;-74
2023/08/17 01:39:11;;;;;;;6.67;3.00;;;15.90;99.90;;;;;;5115477;28;20055;-75
2023/08/17 01:41:38;;;;;;;4.50;2.70;;;15.90;99.90;;;;;;5132689;28;20055;-75
2023/08/17 01:44:04;;;;;;;8.60;3.00;;;15.90;99.90;;;;;;5132962;28;20096;-75
2023/08/17 01:46:34;;;;;;;7.43;3.27;;;15.90;99.90;;;;;;5133438;28;20372;-75
2023/08/17 01:49:00;;;;;;;10.13;3.10;;;15.90;99.90;;;;;;5116302;28;20043;-75
2023/08/17 01:51:26;;;;;;;11.33;3.87;;;16.00;99.90;;;;;;5115566;28;20062;-75
2023/08/17 01:53:52;;;;;;;8.17;3.63;;;15.90;99.90;;;;;;5133974;27;20047;-75
2023/08/17 01:56:17;;;;;;;8.77;3.13;;;15.90;99.90;;;;;;5132681;28;20126;-76
2023/08/17 01:58:43;;;;;;;6.80;3.40;;;15.90;99.90;;;;;;5133814;28;20062;-75
2023/08/17 02:01:09;;;;;;;7.30;3.30;;;15.90;99.90;;;;;;5132722;28;20042;-75
2023/08/17 02:03:35;;;;;;;7.60;3.30;;;15.80;99.90;;;;;;5133565;28;20039;-76
2023/08/17 02:06:01;;;;;;;7.87;3.10;;;15.80;99.90;;;;;;5132587;28;20134;-75
2023/08/17 02:08:27;;;;;;;6.70;3.10;;;15.70;99.90;;;;;;5133281;27;20386;-76
2023/08/17 02:10:53;;;;;;;8.53;3.90;;;15.70;99.90;;;;;;5133795;27;20035;-75
2023/08/17 02:13:19;;;;;;;12.23;3.83;;;15.70;99.90;;;;;;5132802;28;20148;-75
2023/08/17 02:15:46;;;;;;;9.50;3.83;;;15.70;99.90;;;;;;5115525;28;20047;-75
2023/08/17 02:18:12;;;;;;;6.03;2.87;;;15.60;99.90;;;;;;5132455;27;20096;-75
2023/08/17 02:20:38;;;;;;;8.30;3.63;;;15.60;99.90;;;;;;5136389;27;20143;-75
2023/08/17 02:23:04;;;;;;;8.40;3.60;;;15.60;99.90;;;;;;5136636;27;20047;-75
2023/08/17 02:25:35;;;;;;;6.37;3.20;;;15.60;99.90;;;;;;5136236;27;20043;-75
2023/08/17 02:28:02;;;;;;;7.80;3.40;;;15.60;99.90;;;;;;5137632;27;20031;-75
2023/08/17 02:30:28;;;;;;;11.77;3.60;;;15.50;99.90;;;;;;5137305;27;20055;-75
2023/08/17 02:32:53;;;;;;;9.93;3.63;;;15.50;99.90;;;;;;5136437;27;20114;-75
2023/08/17 02:35:19;;;;;;;10.43;3.70;;;15.50;99.90;;;;;;5136452;27;20050;-75
2023/08/17 02:37:45;;;;;;;8.20;3.73;;;15.50;99.90;;;;;;5101601;27;20063;-75
2023/08/17 02:40:11;;;;;;;8.37;3.90;;;15.50;99.90;;;;;;5154171;27;20130;-75
2023/08/17 02:42:36;;;;;;;7.80;3.60;;;15.50;99.90;;;;;;5157408;27;20043;-75
2023/08/17 02:45:02;;;;;;;8.93;4.23;;;15.40;99.90;;;;;;5158001;27;20049;-75
2023/08/17 02:47:28;;;;;;;8.80;4.20;;;15.40;99.90;;;;;;5139176;27;20043;-75
2023/08/17 02:49:54;;;;;;;10.10;3.70;;;15.40;99.90;;;;;;5139389;27;20038;-75
2023/08/17 02:52:19;;;;;;;8.60;3.87;;;15.40;99.90;;;;;;5139382;27;20047;-75
2023/08/17 02:54:45;;;;;;;12.40;4.07;;;15.40;99.90;;;;;;5139162;27;20057;-75
2023/08/17 02:57:12;;;;;;;9.80;3.97;;;15.40;99.90;;;;;;5157951;27;20128;-75
2023/08/17 02:59:38;;;;;;;7.63;3.67;;;15.30;99.90;;;;;;5122029;27;20091;-75
2023/08/17 03:02:04;;;;;;;7.77;3.57;;;15.30;99.90;;;;;;5139246;27;20047;-75
2023/08/17 03:04:29;;;;;;;11.37;4.00;;;15.30;99.90;;;;;;5121731;27;20054;-75
2023/08/17 03:06:55;;;;;;;7.57;3.90;;;15.30;99.90;;;;;;5139109;27;20172;-75
2023/08/17 03:09:21;;;;;;;9.27;4.10;;;15.30;99.90;;;;;;5105134;27;20368;-75
2023/08/17 03:11:46;;;;;;;11.03;3.77;;;15.30;99.90;;;;;;5157208;27;20103;-75
2023/08/17 03:14:12;;;;;;;7.80;3.70;;;15.30;99.90;;;;;;5157417;27;20050;-75
2023/08/17 03:16:38;;;;;;;11.00;3.53;;;15.30;99.90;;;;;;5104486;27;20147;-75
2023/08/17 03:19:03;;;;;;;7.93;3.27;;;15.30;99.90;;;;;;5157567;27;20440;-75
2023/08/17 03:21:29;;;;;;;9.23;3.83;;;15.30;99.90;;;;;;5156995;27;20470;-76
2023/08/17 03:23:55;;;;;;;8.37;3.80;;;15.30;99.90;;;;;;5121889;27;20038;-75
2023/08/17 03:26:20;;;;;;;7.47;3.87;;;15.30;99.90;;;;;;5138796;27;20129;-75
2023/08/17 03:28:46;;;;;;;10.53;4.77;;;15.30;99.90;;;;;;5156888;27;20457;-75
2023/08/17 03:31:12;;;;;;;9.80;3.90;;;15.20;99.90;;;;;;5157233;27;20064;-75
2023/08/17 03:33:38;;;;;;;10.23;3.90;;;15.20;99.90;;;;;;5156826;27;20082;-75
2023/08/17 03:36:04;;;;;;;8.37;3.30;;;15.20;99.90;;;;;;5121634;27;20055;-75
2023/08/17 03:38:30;;;;;;;7.97;4.50;;;15.20;99.90;;;;;;5156652;27;20035;-76
2023/08/17 03:40:55;;;;;;;9.73;3.87;;;15.20;99.90;;;;;;5138638;27;20134;-75
2023/08/17 03:43:21;;;;;;;6.60;3.80;;;15.20;99.90;;;;;;5138274;27;20479;-75
2023/08/17 03:45:47;;;;;;;9.73;3.80;;;15.20;99.90;;;;;;5120904;27;20474;-75
2023/08/17 03:48:12;;;;;;;7.60;3.70;;;15.20;99.90;;;;;;5121462;27;20050;-75
2023/08/17 03:50:38;;;;;;;8.37;4.00;;;15.20;99.90;;;;;;5138177;27;20170;-76
2023/08/17 03:53:04;;;;;;;11.13;3.70;;;15.10;99.90;;;;;;5121344;27;20075;-75
2023/08/17 03:55:30;;;;;;;9.53;3.90;;;15.10;99.90;;;;;;5156703;27;20048;-75
2023/08/17 03:57:55;;;;;;;11.03;3.80;;;15.10;99.90;;;;;;5120685;27;20129;-76
2023/08/17 04:00:21;;;;;;;10.13;4.10;;;15.10;99.90;;;;;;5138171;27;20046;-75
2023/08/17 04:02:47;;;;;;;10.17;3.60;;;15.20;99.90;;;;;;5137478;27;20046;-75
2023/08/17 04:05:13;;;;;;;6.17;3.13;;;15.20;99.90;;;;;;5138245;27;20084;-75
2023/08/17 04:07:39;;;;;;;10.20;3.80;;;15.20;99.90;;;;;;5137686;27;20071;-75
2023/08/17 04:10:08;;;;;;;5.50;3.47;;;15.30;99.90;;;;;;5156624;27;20130;-75
2023/08/17 04:12:34;;;;;;;9.83;3.53;;;15.30;99.90;;;;;;5120721;27;20470;-75
2023/08/17 04:15:00;;;;;;;9.53;3.80;;;15.30;99.90;;;;;;5137874;27;20053;-75
2023/08/17 04:17:26;;;;;;;9.43;3.83;;;15.30;99.90;;;;;;5120608;27;20134;-75
2023/08/17 04:19:52;;;;;;;9.90;3.57;;;15.30;99.90;;;;;;5155875;27;20049;-75
2023/08/17 04:22:17;;;;;;;8.67;4.33;;;15.30;99.90;;;;;;5137736;27;20103;-75
2023/08/17 04:24:43;;;;;;;8.30;4.03;;;15.30;99.90;;;;;;5155847;27;20436;-76
2023/08/17 04:27:09;;;;;;;6.57;3.17;;;15.20;99.90;;;;;;5120726;27;20038;-76
2023/08/17 04:29:36;;;;;;;11.53;4.87;;;15.20;99.90;;;;;;5156071;27;20088;-76
2023/08/17 04:32:01;;;;;;;6.97;3.63;;;15.20;99.90;;;;;;5137705;27;20047;-76
2023/08/17 04:34:27;;;;;;;7.87;4.27;;;15.10;99.90;;;;;;5137530;27;20739;-76
2023/08/17 04:36:53;;;;;;;11.13;4.00;;;15.10;99.90;;;;;;5120051;27;20491;-75
2023/08/17 04:39:19;;;;;;;8.97;3.97;;;15.10;99.90;;;;;;5133896;27;20478;-75
2023/08/17 04:41:44;;;;;;;8.70;4.27;;;15.10;99.90;;;;;;5134097;27;20126;-76
2023/08/17 04:44:10;;;;;;;10.57;3.90;;;15.00;99.90;;;;;;5116740;27;20043;-75
2023/08/17 04:46:36;;;;;;;9.13;3.97;;;15.00;99.90;;;;;;5133884;27;20138;-76
2023/08/17 04:49:02;;;;;;;8.40;3.80;;;15.00;99.90;;;;;;5134633;27;20039;-76
2023/08/17 04:51:27;;;;;;;8.83;4.13;;;15.00;99.90;;;;;;5133820;27;20563;-76
2023/08/17 04:53:53;;;;;;;8.67;4.07;;;15.00;99.90;;;;;;5116417;27;20481;-76
2023/08/17 04:56:19;;;;;;;14.50;3.83;;;15.00;99.90;;;;;;5134857;27;20039;-76
2023/08/17 04:58:45;;;;;;;7.20;3.80;;;15.00;99.90;;;;;;5133267;27;20075;-76
2023/08/17 05:01:10;;;;;;;8.20;4.40;;;15.00;99.90;;;;;;5134581;27;20519;-76
2023/08/17 05:03:36;;;;;;;9.43;4.63;;;15.00;99.90;;;;;;5116636;27;20125;-76
2023/08/17 05:06:03;;;;;;;11.67;4.40;;;15.10;99.90;;;;;;5116325;27;20050;-76
2023/08/17 05:08:29;;;;;;;8.37;3.87;;;15.10;99.90;;;;;;5116618;27;20380;-76
2023/08/17 05:10:55;;;;;;;8.00;3.37;;;15.10;99.90;;;;;;5134221;27;20053;-76
2023/08/17 05:13:20;;;;;;;9.30;4.07;;;15.20;99.90;;;;;;5116286;27;20363;-76
2023/08/17 05:15:46;;;;;;;7.27;3.60;;;15.20;99.90;;;;;;5133229;27;20122;-76
2023/08/17 05:18:12;;;;;;;7.27;3.30;;;15.30;99.90;;;;;;5133211;27;20053;-76
2023/08/17 05:20:37;;;;;;;10.10;3.33;;;15.40;99.90;;;;;;5133270;27;20050;-76
2023/08/17 05:23:04;;;;;;;8.60;3.73;;;15.40;99.90;;;;;;5134111;27;20069;-76
2023/08/17 05:25:29;;;;;;;6.60;3.17;;;15.50;99.90;;;;;;5133258;27;20046;-76
2023/08/17 05:27:55;;;;;;;9.43;3.60;;;15.60;99.90;;;;;;5133065;27;20461;-76
2023/08/17 05:30:21;;;;;;;6.23;3.07;;;15.70;99.90;;;;;;5134279;27;20039;-76
2023/08/17 05:32:47;;;;;;;5.97;2.90;;;15.80;99.90;;;;;;5132806;27;20043;-76
2023/08/17 05:35:13;;;;;;;6.10;2.80;;;15.90;99.90;;;;;;5134158;27;20039;-76
2023/08/17 05:37:39;;;;;;;8.60;3.63;;;16.00;99.90;;;;;;5132872;27;20035;-76
2023/08/17 05:40:05;;;;;;;8.27;2.40;;;16.00;99.90;;;;;;5132452;27;20058;-76
2023/08/17 05:42:31;;;;;;;5.40;2.60;;;16.10;99.90;;;;;;5133217;28;20047;-76
2023/08/17 05:44:56;;;;;;;6.83;2.80;;;16.20;99.90;;;;;;5133876;28;20177;-76
2023/08/17 05:47:22;;;;;;;5.00;2.40;;;16.30;99.90;;;;;;5132894;28;20500;-76
2023/08/17 05:49:48;;;;;;;8.53;2.40;;;16.40;99.90;;;;;;5133869;27;20043;-76
2023/08/17 05:52:13;;;;;;;5.73;2.27;;;16.50;99.90;;;;;;5099228;28;20475;-76
2023/08/17 05:54:39;;;;;;;5.27;2.33;;;16.60;99.90;;;;;;5137185;27;20043;-76
2023/08/17 05:57:05;;;;;;;6.83;2.47;;;16.90;99.90;;;;;;5137956;27;20043;-76
2023/08/17 05:59:31;;;;;;;8.07;2.70;;;17.10;99.90;;;;;;5137086;27;20167;-76
2023/08/17 06:01:56;;;;;;;8.77;2.40;;;17.20;99.90;;;;;;5137009;27;20086;-76
2023/08/17 06:04:22;;;;;;;6.57;2.03;;;17.30;99.90;;;;;;5138110;27;20046;-76
2023/08/17 06:06:48;;;;;;;5.33;2.10;;;17.20;99.90;;;;;;5136689;27;20047;-76
2023/08/17 06:09:14;;;;;;;6.90;2.00;;;17.20;99.90;;;;;;5137060;27;20065;-76
2023/08/17 06:11:40;;;;;;;6.30;1.87;;;17.20;99.90;;;;;;5136986;27;20391;-76
2023/08/17 06:14:06;;;;;;;8.43;1.83;;;17.20;99.90;;;;;;5136714;27;20047;-76
2023/08/17 06:16:32;;;;;;;5.70;1.70;;;17.50;99.90;;;;;;5137900;27;20065;-76
2023/08/17 06:18:58;;;;;;;5.57;2.30;;;18.50;99.90;;;;;;5137447;27;20042;-76
2023/08/17 06:21:24;;;;;;;5.77;1.80;;;19.80;99.90;;;;;;5136800;27;20043;-76
2023/08/17 06:23:49;;;;;;;5.93;1.70;;;20.90;99.90;;;;;;5119555;27;20043;-77
2023/08/17 06:26:15;;;;;;;6.50;1.67;;;21.70;99.90;;;;;;5137803;27;20050;-76
2023/08/17 06:28:41;;;;;;;4.10;1.60;;;22.80;99.90;;;;;;5137367;27;20096;-76
2023/08/17 06:31:06;;;;;;;6.33;1.73;;;23.30;99.90;;;;;;5119072;27;20043;-76
2023/08/17 06:33:32;;;;;;;4.53;1.63;;;24.00;99.90;;;;;;5137568;27;20047;-76
2023/08/17 06:35:58;;;;;;;5.73;1.87;;;24.10;99.90;;;;;;5136105;27;20049;-76
2023/08/17 06:38:24;;;;;;;5.87;2.03;;;24.20;99.90;;;;;;5119151;27;20046;-76
2023/08/17 06:40:51;;;;;;;4.70;1.53;;;24.40;99.90;;;;;;5135612;27;20055;-76
2023/08/17 06:43:18;;;;;;;4.63;1.60;;;24.70;99.90;;;;;;5136200;27;20054;-76
2023/08/17 06:45:44;;;;;;;3.77;1.30;;;25.00;97.80;;;;;;5136971;27;20508;-76
2023/08/17 06:48:09;;;;;;;7.87;2.20;;;25.00;99.90;;;;;;5136072;27;20086;-76
2023/08/17 06:50:35;;;;;;;8.23;2.67;;;25.00;99.60;;;;;;5136218;27;20077;-76
2023/08/17 06:53:02;;;;;;;5.90;1.70;;;25.00;98.40;;;;;;5135852;27;20055;-76
2023/08/17 06:55:28;;;;;;;5.97;1.70;;;24.90;97.90;;;;;;5136352;27;20112;-76
2023/08/17 06:57:54;;;;;;;4.87;1.70;;;25.00;98.20;;;;;;5135622;27;20479;-77
2023/08/17 07:00:21;;;;;;;4.90;1.40;;;25.40;97.90;;;;;;5119070;27;20043;-75
2023/08/17 07:02:50;;;;;;;6.77;1.80;;;25.50;96.20;;;;;;5136915;27;20082;-76
2023/08/17 07:05:18;;;;;;;4.53;1.57;;;26.00;94.50;;;;;;5136251;27;20487;-76
2023/08/17 07:07:44;;;;;;;6.23;1.50;;;26.00;93.20;;;;;;5135928;27;20055;-76
2023/08/17 07:10:10;;;;;;;6.30;1.83;;;26.00;90.90;;;;;;5135559;27;20043;-76
2023/08/17 07:12:37;;;;;;;5.47;1.63;;;25.70;91.50;;;;;;5136984;27;20051;-76
2023/08/17 07:15:04;;;;;;;7.23;2.03;;;25.70;92.30;;;;;;5136541;27;20106;-76
2023/08/17 07:17:30;;;;;;;4.80;1.57;;;25.00;92.90;;;;;;5135944;27;20047;-76
2023/08/17 07:19:55;;;;;;;5.37;1.57;;;24.30;94.80;;;;;;5118445;27;20058;-76
2023/08/17 07:22:21;;;;;;;6.97;1.83;;;23.50;97.90;;;;;;5136645;27;20047;-76
2023/08/17 07:24:47;;;;;;;7.70;1.97;;;22.70;99.90;;;;;;5135755;27;20047;-76
2023/08/17 07:27:13;;;;;;;7.90;2.17;;;22.70;99.90;;;;;;5135123;27;20035;-76
2023/08/17 07:29:38;;;;;;;4.60;1.40;;;23.50;99.90;;;;;;5136489;27;20050;-76
2023/08/17 07:32:04;;;;;;;4.23;1.50;;;24.10;99.60;;;;;;5136208;27;20094;-76
2023/08/17 07:34:31;;;;;;;5.40;1.40;;;24.50;96.60;;;;;;5136488;27;20086;-76
2023/08/17 07:36:57;;;;;;;6.47;1.70;;;24.90;95.00;;;;;;5136350;27;20082;-76
2023/08/17 07:39:23;;;;;;;5.63;1.60;;;25.30;92.80;;;;;;5117908;27;20470;-76
2023/08/17 07:41:49;;;;;;;5.83;1.80;;;25.50;92.00;;;;;;5134887;27;20090;-76
2023/08/17 07:44:14;;;;;;;3.73;1.37;;;25.30;90.80;;;;;;5135962;27;20047;-76
2023/08/17 07:46:40;;;;;;;3.80;1.33;;;24.30;91.20;;;;;;5135488;27;20394;-75
2023/08/17 07:49:06;;;;;;;8.87;1.43;;;23.40;95.50;;;;;;5135829;27;20051;-76
2023/08/17 07:51:33;;;;;;;6.00;1.53;;;22.30;99.20;;;;;;5135140;27;20126;-75
2023/08/17 07:54:00;;;;;;;6.33;1.60;;;21.60;99.90;;;;;;5100991;27;20043;-75
2023/08/17 07:56:26;;;;;;;5.07;1.70;;;21.10;99.90;;;;;;5117717;27;20055;-69
2023/08/17 07:58:54;;;;;;;5.97;2.37;;;20.70;99.90;;;;;;5135736;27;20042;-75
2023/08/17 08:01:19;;;;;;;3.23;1.30;;;20.40;99.90;;;;;;5134732;27;20055;-77
2023/08/17 08:03:45;;;;;;;6.10;1.70;;;20.30;99.90;;;;;;5117763;27;20398;-77
2023/08/17 08:06:11;;;;;;;4.97;1.50;;;20.30;99.90;;;;;;5135475;27;20086;-76
2023/08/17 08:08:37;;;;;;;6.13;1.50;;;20.20;99.90;;;;;;5134728;27;20076;-77
2023/08/17 08:11:04;;;;;;;4.53;1.70;;;20.40;99.90;;;;;;5134267;27;20129;-79
2023/08/17 08:13:30;;;;;;;6.17;1.70;;;20.50;99.90;;;;;;5118102;27;20142;-78
2023/08/17 08:15:56;;;;;;;5.07;1.60;;;20.60;99.90;;;;;;5100602;27;20047;-77
2023/08/17 08:18:22;;;;;;;2.80;1.33;;;20.60;99.90;;;;;;5115938;27;20050;-77
2023/08/17 08:20:48;;;;;;;3.73;1.40;;;20.60;99.90;;;;;;5100539;27;20043;-77
2023/08/17 08:23:14;;;;;;;5.03;1.30;;;20.50;99.90;;;;;;5116655;27;20058;-77
2023/08/17 08:25:40;;;;;;;3.27;1.50;;;20.60;99.90;;;;;;5134475;27;20043;-78
2023/08/17 08:28:06;;;;;;;5.53;1.47;;;20.80;99.90;;;;;;5116820;27;20125;-76
2023/08/17 08:30:31;;;;;;;4.80;1.40;;;21.00;99.90;;;;;;5134664;27;20043;-75
2023/08/17 08:32:58;;;;;;;4.93;1.50;;;21.40;99.90;;;;;;5134228;27;20473;-77
2023/08/17 08:35:25;;;;;;;7.40;1.70;;;21.50;99.90;;;;;;5117028;27;20454;-78
2023/08/17 08:37:51;;;;;;;4.77;1.63;;;21.50;99.90;;;;;;5116750;27;20539;-78
2023/08/17 08:40:20;;;;;;;3.63;1.27;;;21.50;99.90;;;;;;5099283;27;20051;-79
2023/08/17 08:42:49;;;;;;;4.83;1.93;;;21.30;99.90;;;;;;5134281;27;20070;-76
2023/08/17 08:45:15;;;;;;;6.07;1.60;;;21.40;99.90;;;;;;5133663;27;20514;-75
2023/08/17 08:47:43;;;;;;;3.40;1.50;;;21.30;99.90;;;;;;5133998;27;20090;-74
2023/08/17 08:50:13;;;;;;;4.70;1.50;;;21.40;99.90;;;;;;5134549;27;20043;-77
2023/08/17 08:52:49;;;;;;;4.17;1.50;;;21.70;99.90;;;;;;5134851;27;20180;-76
2023/08/17 08:55:18;;;;;;;5.57;1.30;;;22.00;99.90;;;;;;5134862;27;20082;-75
2023/08/17 08:57:44;;;;;;;5.63;1.60;;;22.20;99.90;;;;;;5116362;27;20184;-76
2023/08/17 09:00:12;;;;;;;4.47;1.60;;;22.10;99.90;;;;;;5099694;27;20084;-77
2023/08/17 09:02:38;;;;;;;5.80;1.57;;;21.90;99.90;;;;;;5116140;27;20043;-77
2023/08/17 09:05:08;;;;;;;8.33;1.70;;;21.70;99.90;;;;;;5133631;27;20040;-76
2023/08/17 09:07:35;;;;;;;3.70;1.40;;;21.70;99.90;;;;;;5133771;27;20181;-72
2023/08/17 09:10:03;;;;;;;6.10;1.63;;;21.60;99.90;;;;;;5099406;27;20055;-73
2023/08/17 09:12:30;;;;;;;3.87;1.67;;;21.40;99.90;;;;;;5116223;27;20061;-75
2023/08/17 09:14:56;;;;;;;4.27;1.57;;;21.40;99.90;;;;;;5134462;27;20058;-74
2023/08/17 09:17:26;;;;;;;6.00;1.93;;;21.30;99.90;;;;;;5134094;27;20078;-74
2023/08/17 09:19:52;;;;;;;5.50;1.53;;;21.10;99.90;;;;;;5133219;27;20047;-73
2023/08/17 09:22:41;;;;;;;2.93;1.43;;;21.10;99.90;;;;;;5133687;27;20562;-71
2023/08/17 09:25:08;;;;;;;3.97;1.53;;;21.10;99.90;;;;;;5133076;27;20136;-73
2023/08/17 09:27:36;;;;;;;9.17;1.63;;;21.20;99.90;;;;;;5133810;27;20043;-75
2023/08/17 09:30:06;;;;;;;4.53;1.50;;;21.30;99.90;;;;;;5134346;27;20092;-73
2023/08/17 09:32:33;;;;;;;4.63;1.50;;;21.30;99.90;;;;;;5132806;27;20397;-74
2023/08/17 09:35:04;;;;;;;5.13;1.50;;;21.30;99.90;;;;;;5134260;27;20069;-72
2023/08/17 09:37:29;;;;;;;5.70;1.60;;;21.20;99.90;;;;;;5133595;27;20130;-73
2023/08/17 09:39:56;;;;;;;4.80;1.60;;;21.30;99.90;;;;;;5138265;27;20055;-72
2023/08/17 09:42:22;;;;;;;5.43;1.60;;;21.20;99.90;;;;;;5154263;27;20096;-72
2023/08/17 09:44:55;;;;;;;5.23;1.80;;;21.20;99.90;;;;;;5154779;27;20039;-75
2023/08/17 09:47:22;;;;;;;6.10;1.90;;;21.20;99.90;;;;;;5136101;27;20435;-73
2023/08/17 09:49:49;;;;;;;3.07;1.33;;;21.10;99.90;;;;;;5154959;27;20035;-73
2023/08/17 09:52:15;;;;;;;5.87;1.87;;;21.30;99.90;;;;;;5154416;27;20042;-76
2023/08/17 09:54:41;;;;;;;8.70;1.80;;;21.30;99.90;;;;;;5154642;27;20039;-71
2023/08/17 09:57:08;;;;;;;7.23;2.33;;;21.20;99.90;;;;;;5154796;27;20047;-72
2023/08/17 09:59:34;;;;;;;4.97;1.40;;;21.20;99.90;;;;;;5154421;27;20046;-71
2023/08/17 10:02:00;;;;;;;5.47;1.70;;;21.30;99.90;;;;;;5154581;27;20442;-70
2023/08/17 10:04:30;;;;;;;6.50;2.00;;;21.30;99.90;;;;;;5154226;27;20052;-73
2023/08/17 10:07:03;;;;;;;5.17;1.50;;;21.40;99.90;;;;;;5136262;27;20141;-75
2023/08/17 10:09:38;;;;;;;5.83;1.80;;;21.40;99.90;;;;;;5136067;27;20035;-75
2023/08/17 10:12:09;;;;;;;6.27;1.67;;;21.50;99.90;;;;;;5154731;27;20479;-75
2023/08/17 10:14:41;;;;;;;5.20;2.00;;;21.40;99.90;;;;;;5153982;27;20073;-76
2023/08/17 10:17:12;;;;;;;4.73;1.53;;;21.40;99.90;;;;;;5136115;27;20490;-75
2023/08/17 10:19:52;;;;;;;6.30;1.73;;;21.20;99.90;;;;;;5119382;27;20054;-76
2023/08/17 10:22:26;;;;;;;7.37;2.30;;;21.20;99.90;;;;;;5135918;27;20135;-77
2023/08/17 10:24:54;;;;;;;5.95;1.95;;;21.20;99.90;;;;;;5119310;27;20111;-75
2023/08/17 10:27:21;;;;;;;7.53;1.93;;;21.10;99.90;;;;;;5135703;27;20054;-76
2023/08/17 10:29:47;;;;;;;5.20;1.60;;;21.20;99.90;;;;;;5136095;27;20035;-76
2023/08/17 10:32:14;;;;;;;8.40;1.90;;;21.20;99.90;;;;;;5119089;27;20043;-75
2023/08/17 10:34:41;;;;;;;6.43;1.80;;;21.20;99.90;;;;;;5154056;27;20133;-76
2023/08/17 10:37:07;;;;;;;4.53;1.50;;;21.20;99.90;;;;;;5135931;27;20042;-76
2023/08/17 10:39:34;;;;;;;5.30;1.50;;;21.30;99.90;;;;;;5135604;27;20372;-75
2023/08/17 10:42:00;;;;;;;6.43;2.37;;;21.30;99.90;;;;;;5138515;27;20051;-75
2023/08/17 10:44:41;;;;;;;4.43;1.60;;;21.30;99.90;;;;;;5139510;27;20371;-76
2023/08/17 10:47:27;;;;;;;6.20;2.03;;;21.40;99.90;;;;;;5122574;27;20076;-75
2023/08/17 10:50:05;;;;;;;9.87;2.10;;;21.40;99.90;;;;;;5105431;27;20039;-71
2023/08/17 10:52:40;;;;;;;5.23;2.00;;;21.40;99.90;;;;;;5157733;27;20073;-78
2023/08/17 10:55:09;;;;;;;4.20;1.80;;;21.50;99.90;;;;;;5122254;27;20497;-77
2023/08/17 10:57:39;;;;;;;6.07;2.07;;;21.50;99.90;;;;;;5139070;27;20043;-78
2023/08/17 11:00:20;;;;;;;7.00;1.83;;;21.50;99.90;;;;;;5139524;27;20042;-76
2023/08/17 11:03:00;;;;;;;4.47;1.60;;;21.50;99.90;;;;;;5121798;27;20051;-76
2023/08/17 11:05:58;;;;;;;4.33;1.70;;;21.40;99.90;;;;;;5139108;27;20046;-78
2023/08/17 11:08:42;;;;;;;6.23;1.70;;;21.30;99.90;;;;;;5139164;27;20057;-78
2023/08/17 11:11:14;;;;;;;9.45;2.17;;;21.20;99.90;;;;;;5121927;27;20184;-75
2023/08/17 11:13:43;;;;;;;6.43;1.87;;;21.20;99.90;;;;;;5104868;27;20135;-75
2023/08/17 11:16:12;;;;;;;6.50;1.90;;;21.10;99.90;;;;;;5121837;27;20482;-75
2023/08/17 11:18:38;;;;;;;5.50;1.80;;;21.20;99.90;;;;;;5121570;27;20047;-81
2023/08/17 11:21:05;;;;;;;6.17;1.93;;;21.30;99.90;;;;;;5121897;27;20050;-75
2023/08/17 11:23:33;;;;;;;4.73;1.80;;;21.40;99.90;;;;;;5156949;27;20054;-76
2023/08/17 11:26:01;;;;;;;7.03;2.00;;;21.50;99.90;;;;;;5138627;27;20038;-75
2023/08/17 11:28:36;;;;;;;6.13;2.00;;;21.50;99.90;;;;;;5138641;27;20046;-74
2023/08/17 11:31:05;;;;;;;;;;;21.60;99.90;;;;;;5157764;27;20390;-76
2023/08/17 11:33:33;;;;;;;7.67;1.90;;;21.50;99.90;;;;;;5138594;27;19971;-76
2023/08/17 11:36:00;;;;;;;5.07;2.00;;;21.60;99.90;;;;;;5121557;27;20486;-76
2023/08/17 11:38:29;;;;;;;7.43;1.80;;;21.60;99.90;;;;;;5138531;27;20042;-81
2023/08/17 11:40:58;;;;;;;6.63;2.67;;;21.60;99.90;;;;;;5138302;27;20058;-76
2023/08/17 11:43:23;;;;;;;6.40;2.00;;;21.60;99.90;;;;;;5156828;27;20082;-76
2023/08/17 11:45:49;;;;;;;8.93;2.23;;;21.60;99.90;;;;;;5121140;27;20108;-76
2023/08/17 11:48:16;;;;;;;4.37;1.53;;;21.70;99.90;;;;;;5138410;27;20047;-76
2023/08/17 11:50:43;;;;;;;5.50;1.97;;;21.70;99.90;;;;;;5138069;27;20055;-77
2023/08/17 11:53:09;;;;;;;6.43;2.30;;;21.70;99.90;;;;;;5138297;27;20053;-76
2023/08/17 11:55:35;;;;;;;7.13;2.70;;;21.70;99.90;;;;;;5155956;27;20046;-76
2023/08/17 11:58:02;;;;;;;7.80;1.87;;;21.70;99.90;;;;;;5137998;27;20091;-76
2023/08/17 12:00:35;;;;;;;5.53;1.83;;;21.70;99.90;;;;;;5156507;27;20194;-76
2023/08/17 12:03:03;;;;;;;6.87;2.47;;;21.70;99.90;;;;;;5138149;27;20051;-76
2023/08/17 12:05:31;;;;;;;5.03;1.77;;;21.60;99.90;;;;;;5121214;27;20078;-71
2023/08/17 12:07:58;;;;;;;7.20;2.40;;;21.60;99.90;;;;;;5156315;27;20070;-74
2023/08/17 12:10:27;;;;;;;8.63;2.77;;;21.50;99.90;;;;;;5138103;27;20046;-70
2023/08/17 12:12:52;;;;;;;8.67;2.30;;;21.60;99.90;;;;;;5137591;27;20051;-74
2023/08/17 12:15:19;;;;;;;6.13;1.97;;;21.50;99.90;;;;;;5120943;27;20069;-73
2023/08/17 12:17:49;;;;;;;8.03;2.30;;;21.50;99.90;;;;;;5120363;27;20038;-79
2023/08/17 12:20:19;;;;;;;9.57;2.10;;;21.30;99.90;;;;;;5137601;27;20474;-77
2023/08/17 12:22:46;;;;;;;4.53;1.90;;;21.20;99.90;;;;;;5120520;27;20051;-76
2023/08/17 12:25:12;;;;;;;8.23;2.27;;;21.10;99.90;;;;;;5137512;27;20062;-77
2023/08/17 12:27:37;;;;;;;6.07;1.80;;;21.10;99.90;;;;;;5120307;27;20043;-73
2023/08/17 12:30:04;;;;;;;8.40;2.10;;;21.10;99.90;;;;;;5137689;27;20046;-76
2023/08/17 12:32:29;;;;;;;4.20;1.67;;;21.00;99.90;;;;;;5137582;27;20390;-76
2023/08/17 12:34:55;;;;;;;7.30;2.23;;;21.00;99.90;;;;;;5155494;27;20043;-76
2023/08/17 12:37:21;;;;;;;6.63;2.23;;;20.90;99.90;;;;;;5120115;27;20129;-73
2023/08/17 12:39:50;;;;;;;4.80;2.03;;;20.90;99.90;;;;;;5136857;27;20047;-72
2023/08/17 12:42:16;;;;;;;7.50;2.47;;;21.00;99.90;;;;;;5120172;27;20050;-77
2023/08/17 12:44:42;;;;;;;7.60;2.67;;;20.90;99.90;;;;;;5155420;27;20042;-70